Time;durP1;ratioP1;P1;durP2;ratioP2;P2;SDS_P1;SDS_P2;PMS_P1;PMS_P2;Temp;Humidity;BMP_temperature;BMP_pressure;BME280_temperature;BME280_humidity;BME280_pressure;Samples;Min_cycle;Max_cycle;Signal;HPM_P1;HPM_P2
2022/10/11 00:00:08;;;;;;;1.33;0.90;;;20.60;56.70;;;;;;6270414;28;20067;-69
2022/10/11 00:03:09;;;;;;;1.00;0.82;;;20.50;56.60;;;;;;6269928;28;20025;-69
2022/10/11 00:06:10;;;;;;;0.70;0.70;;;20.50;56.50;;;;;;6269712;28;20040;-68
2022/10/11 00:09:10;;;;;;;1.70;1.10;;;20.50;56.60;;;;;;6268754;28;20021;-69
2022/10/11 00:12:11;;;;;;;1.02;0.82;;;20.50;56.60;;;;;;6270584;28;20025;-69
2022/10/11 00:15:15;;;;;;;1.00;0.80;;;20.50;56.60;;;;;;6269945;28;20064;-69
2022/10/11 00:18:15;;;;;;;1.15;0.85;;;20.50;56.70;;;;;;6268602;28;20025;-68
2022/10/11 00:21:16;;;;;;;1.83;0.80;;;20.50;56.70;;;;;;6269978;28;20123;-69
2022/10/11 00:24:17;;;;;;;1.60;1.00;;;20.50;56.70;;;;;;6269352;28;20025;-69
2022/10/11 00:27:18;;;;;;;0.90;0.70;;;20.50;56.70;;;;;;6269523;28;20032;-69
2022/10/11 00:30:19;;;;;;;1.08;0.85;;;20.50;56.60;;;;;;6269214;28;20530;-69
2022/10/11 00:33:20;;;;;;;1.48;0.80;;;20.50;56.60;;;;;;6268331;28;20025;-69
2022/10/11 00:36:21;;;;;;;1.17;0.73;;;20.50;56.60;;;;;;6267730;28;20033;-69
2022/10/11 00:39:22;;;;;;;0.95;0.65;;;20.50;56.70;;;;;;6268830;28;20100;-68
2022/10/11 00:42:23;;;;;;;1.13;0.80;;;20.50;56.50;;;;;;6268600;28;20025;-69
2022/10/11 00:45:26;;;;;;;1.83;0.85;;;20.50;56.60;;;;;;6259865;28;20023;-68
2022/10/11 00:48:46;;;;;;;1.10;0.60;;;20.50;56.70;;;;;;6255601;28;20051;-69
2022/10/11 00:51:50;;;;;;;1.52;0.90;;;20.50;56.70;;;;;;6266923;28;20382;-69
2022/10/11 00:54:50;;;;;;;0.63;0.52;;;20.50;56.60;;;;;;6258823;28;20061;-69
2022/10/11 00:57:52;;;;;;;1.40;0.85;;;20.50;56.70;;;;;;6250839;28;20504;-69
2022/10/11 01:00:53;;;;;;;1.73;0.82;;;20.50;56.70;;;;;;6268678;28;20028;-69
2022/10/11 01:03:55;;;;;;;0.95;0.68;;;20.50;56.70;;;;;;6267893;28;20429;-68
2022/10/11 01:06:57;;;;;;;1.52;0.75;;;20.50;56.70;;;;;;6267218;28;20021;-69
2022/10/11 01:09:58;;;;;;;1.20;0.60;;;20.50;56.70;;;;;;6268416;28;20017;-69
2022/10/11 01:13:21;;;;;;;1.55;1.08;;;20.50;56.70;;;;;;6268503;28;20021;-69
2022/10/11 01:16:46;;;;;;;0.75;0.60;;;20.50;56.70;;;;;;6268273;28;20025;-69
2022/10/11 01:20:16;;;;;;;1.33;0.87;;;20.50;56.80;;;;;;6268625;28;20029;-69
2022/10/11 01:23:25;;;;;;;1.05;0.82;;;20.50;56.70;;;;;;6268230;28;20367;-68
2022/10/11 01:26:39;;;;;;;1.90;0.85;;;20.50;56.70;;;;;;6268126;28;20021;-69
2022/10/11 01:29:49;;;;;;;0.88;0.68;;;20.50;56.80;;;;;;6268032;28;20100;-69
2022/10/11 01:33:00;;;;;;;1.15;0.60;;;20.50;57.30;;;;;;6267840;28;20029;-69
2022/10/11 01:36:11;;;;;;;0.88;0.65;;;20.50;56.60;;;;;;6267700;28;20033;-69
2022/10/11 01:39:45;;;;;;;0.95;0.70;;;20.50;56.50;;;;;;6267660;28;20584;-68
2022/10/11 01:42:46;;;;;;;1.73;0.82;;;20.50;56.60;;;;;;6267780;28;20025;-69
2022/10/11 01:45:51;;;;;;;1.13;0.63;;;20.50;56.70;;;;;;6254080;28;20028;-68
2022/10/11 01:48:54;;;;;;;0.60;0.60;;;20.50;56.70;;;;;;6249646;28;20048;-69
2022/10/11 01:51:58;;;;;;;0.50;0.50;;;20.50;56.70;;;;;;6266078;28;20033;-69
2022/10/11 01:55:18;;;;;;;1.52;0.77;;;20.50;56.70;;;;;;6267505;28;20052;-69
2022/10/11 01:58:35;;;;;;;0.60;0.50;;;20.50;56.70;;;;;;6266125;28;20029;-69
2022/10/11 02:02:20;;;;;;;0.73;0.50;;;20.50;56.70;;;;;;6267496;28;20513;-69
2022/10/11 02:05:43;;;;;;;0.65;0.57;;;20.50;56.70;;;;;;6247324;28;20611;-69
2022/10/11 02:09:07;;;;;;;0.93;0.60;;;20.50;56.60;;;;;;6267150;28;20025;-69
2022/10/11 02:12:11;;;;;;;0.95;0.70;;;20.50;56.70;;;;;;6266398;28;20378;-69
2022/10/11 02:15:14;;;;;;;0.73;0.65;;;20.50;56.70;;;;;;6257443;28;20168;-68
2022/10/11 02:18:23;;;;;;;0.93;0.63;;;20.50;56.70;;;;;;6242256;28;20574;-69
2022/10/11 02:21:26;;;;;;;1.80;0.63;;;20.50;56.70;;;;;;6242006;28;20072;-68
2022/10/11 02:24:31;;;;;;;1.20;0.63;;;20.50;56.60;;;;;;6249812;28;20013;-69
2022/10/11 02:27:35;;;;;;;1.05;0.73;;;20.50;56.70;;;;;;6266626;28;20029;-69
2022/10/11 02:30:39;;;;;;;0.50;0.50;;;20.50;56.70;;;;;;6266634;28;20085;-69
2022/10/11 02:33:43;;;;;;;1.20;0.60;;;20.50;56.70;;;;;;6266281;28;20520;-69
2022/10/11 02:36:49;;;;;;;0.73;0.47;;;20.50;56.60;;;;;;6266417;28;20025;-69
2022/10/11 02:40:14;;;;;;;2.45;0.80;;;20.50;56.70;;;;;;6266561;28;20176;-69
2022/10/11 02:43:35;;;;;;;0.77;0.63;;;20.50;56.70;;;;;;6265108;28;20036;-69
2022/10/11 02:46:37;;;;;;;1.42;0.70;;;20.50;56.70;;;;;;6247424;28;20103;-69
2022/10/11 02:49:38;;;;;;;1.10;0.68;;;20.50;56.60;;;;;;6247483;28;20551;-69
2022/10/11 02:52:39;;;;;;;2.13;0.60;;;20.50;56.60;;;;;;6256632;28;20116;-69
2022/10/11 02:55:40;;;;;;;0.55;0.50;;;20.50;56.60;;;;;;6255625;28;20059;-69
2022/10/11 02:58:41;;;;;;;1.52;0.68;;;20.50;56.70;;;;;;6266564;28;20029;-69
2022/10/11 03:01:42;;;;;;;1.10;0.70;;;20.50;56.70;;;;;;6265887;28;20031;-69
2022/10/11 03:04:42;;;;;;;0.77;0.55;;;20.50;56.70;;;;;;6263854;28;20370;-69
2022/10/11 03:07:43;;;;;;;2.60;0.50;;;20.50;56.70;;;;;;6265923;28;20098;-69
2022/10/11 03:10:44;;;;;;;1.45;0.60;;;20.50;56.60;;;;;;6265543;28;20041;-69
2022/10/11 03:13:44;;;;;;;1.48;0.70;;;20.50;56.70;;;;;;6264147;28;20060;-69
2022/10/11 03:16:45;;;;;;;0.80;0.60;;;20.50;56.60;;;;;;6265644;28;20099;-69
2022/10/11 03:19:46;;;;;;;1.27;0.55;;;20.50;56.70;;;;;;6265755;28;20390;-69
2022/10/11 03:22:47;;;;;;;1.55;0.75;;;20.50;56.60;;;;;;6265478;28;20406;-68
2022/10/11 03:25:47;;;;;;;0.90;0.60;;;20.50;56.60;;;;;;6265422;28;20025;-69
2022/10/11 03:28:48;;;;;;;1.00;0.60;;;20.50;56.50;;;;;;6264232;28;20064;-69
2022/10/11 03:31:49;;;;;;;0.98;0.60;;;20.50;56.70;;;;;;6265606;28;20060;-69
2022/10/11 03:34:49;;;;;;;1.52;0.73;;;20.50;56.60;;;;;;6264053;28;20786;-73
2022/10/11 03:37:50;;;;;;;0.90;0.57;;;20.50;56.70;;;;;;6266177;28;20035;-70
2022/10/11 03:40:51;;;;;;;1.42;0.70;;;20.50;56.60;;;;;;6264921;28;20642;-74
2022/10/11 03:43:52;;;;;;;1.65;0.77;;;20.50;56.70;;;;;;6256810;28;20026;-74
2022/10/11 03:46:52;;;;;;;1.98;0.63;;;20.50;56.60;;;;;;6258225;28;20028;-71
2022/10/11 03:49:53;;;;;;;0.95;0.60;;;20.50;56.60;;;;;;6264827;28;20118;-72
2022/10/11 03:52:53;;;;;;;1.17;0.50;;;20.50;56.50;;;;;;6265494;28;20025;-72
2022/10/11 03:55:55;;;;;;;0.70;0.55;;;20.50;56.60;;;;;;6264768;28;20021;-72
2022/10/11 03:58:55;;;;;;;1.10;0.63;;;20.50;56.70;;;;;;6265994;28;20513;-72
2022/10/11 04:01:56;;;;;;;0.98;0.50;;;20.50;56.60;;;;;;6265783;28;20096;-72
2022/10/11 04:04:57;;;;;;;0.75;0.50;;;20.50;56.70;;;;;;6265606;28;20116;-71
2022/10/11 04:07:57;;;;;;;0.68;0.47;;;20.50;56.70;;;;;;6265680;28;20493;-72
2022/10/11 04:10:58;;;;;;;1.45;0.60;;;20.50;56.70;;;;;;6265817;28;20741;-71
2022/10/11 04:13:59;;;;;;;1.10;0.60;;;20.50;56.70;;;;;;6265686;28;20048;-72
2022/10/11 04:16:59;;;;;;;1.02;0.63;;;20.50;56.70;;;;;;6263911;28;20430;-72
2022/10/11 04:20:02;;;;;;;0.88;0.52;;;20.50;56.60;;;;;;6265736;28;20105;-72
2022/10/11 04:23:03;;;;;;;0.57;0.50;;;20.50;56.70;;;;;;6265610;28;20036;-72
2022/10/11 04:26:05;;;;;;;0.77;0.60;;;20.50;56.70;;;;;;6265369;28;20084;-72
2022/10/11 04:29:06;;;;;;;0.63;0.50;;;20.50;56.70;;;;;;6265590;28;20704;-72
2022/10/11 04:32:07;;;;;;;0.85;0.50;;;20.50;56.60;;;;;;6263850;28;20068;-72
2022/10/11 04:35:08;;;;;;;1.23;0.73;;;20.50;56.60;;;;;;6265400;28;20104;-72
2022/10/11 04:38:09;;;;;;;0.77;0.50;;;20.50;56.70;;;;;;6268450;28;20031;-72
2022/10/11 04:41:12;;;;;;;0.65;0.50;;;20.50;56.70;;;;;;6270047;28;20025;-72
2022/10/11 04:44:13;;;;;;;0.65;0.60;;;20.50;56.70;;;;;;6269727;28;20053;-72
2022/10/11 04:47:13;;;;;;;1.17;0.60;;;20.50;56.60;;;;;;6257083;28;20044;-72
2022/10/11 04:50:15;;;;;;;1.08;0.70;;;20.50;56.70;;;;;;6268323;28;20119;-72
2022/10/11 04:53:17;;;;;;;0.88;0.55;;;20.50;56.70;;;;;;6268832;28;20147;-72
2022/10/11 04:56:17;;;;;;;1.05;0.63;;;20.50;56.70;;;;;;6269578;28;20056;-71
2022/10/11 05:03:15;;;;;;;0.50;0.40;;;20.50;56.70;;;;;;6248053;28;20039;-72
2022/10/11 05:06:16;;;;;;;1.15;0.52;;;20.50;56.70;;;;;;6244357;28;20079;-73
2022/10/11 05:09:18;;;;;;;1.75;0.60;;;20.50;56.70;;;;;;6244345;28;20025;-71
2022/10/11 05:12:18;;;;;;;0.57;0.40;;;20.40;56.50;;;;;;6245724;28;20028;-71
2022/10/11 05:15:19;;;;;;;1.65;0.60;;;20.50;56.70;;;;;;6245586;28;20104;-72
2022/10/11 05:18:20;;;;;;;1.13;0.50;;;20.50;56.60;;;;;;6245484;28;20113;-71
2022/10/11 05:21:26;;;;;;;0.82;0.47;;;20.40;56.50;;;;;;6244271;28;20500;-72
2022/10/11 05:24:27;;;;;;;2.22;0.75;;;20.40;56.50;;;;;;6245079;28;20017;-71
2022/10/11 05:27:27;;;;;;;1.30;0.43;;;20.40;56.50;;;;;;6243806;28;20517;-71
2022/10/11 05:30:28;;;;;;;1.17;0.50;;;20.50;56.70;;;;;;6245582;28;20021;-71
2022/10/11 05:33:29;;;;;;;1.27;0.68;;;20.40;56.50;;;;;;6245797;28;20479;-71
2022/10/11 05:36:30;;;;;;;1.40;0.60;;;20.40;56.50;;;;;;6245282;28;20025;-71
2022/10/11 05:39:31;;;;;;;1.13;0.60;;;20.40;56.60;;;;;;6244618;28;20079;-71
2022/10/11 05:42:32;;;;;;;1.77;0.60;;;20.50;56.70;;;;;;6244825;28;20027;-71
2022/10/11 05:45:39;;;;;;;2.42;0.60;;;20.40;56.60;;;;;;6244619;28;20049;-71
2022/10/11 05:48:40;;;;;;;0.68;0.50;;;20.50;56.70;;;;;;6243434;28;20045;-71
2022/10/11 05:51:40;;;;;;;0.95;0.52;;;20.50;56.70;;;;;;6260135;28;20037;-71
2022/10/11 05:54:41;;;;;;;0.70;0.40;;;20.40;56.50;;;;;;6240531;28;20048;-71
2022/10/11 05:57:43;;;;;;;1.15;0.63;;;20.50;56.60;;;;;;6260313;28;20493;-71
2022/10/11 06:00:44;;;;;;;1.50;0.60;;;20.40;56.60;;;;;;6265786;28;20367;-70
2022/10/11 06:03:44;;;;;;;7.18;1.63;;;20.40;56.60;;;;;;6240280;28;20029;-70
2022/10/11 06:06:47;;;;;;;3.08;0.90;;;20.40;56.00;;;;;;6244583;28;20045;-70
2022/10/11 06:09:47;;;;;;;4.18;1.42;;;20.40;55.70;;;;;;6270160;28;20029;-70
2022/10/11 06:12:48;;;;;;;3.67;0.82;;;20.50;55.80;;;;;;6281255;28;20033;-70
2022/10/11 06:15:49;;;;;;;4.45;1.25;;;20.50;56.00;;;;;;6244518;28;20052;-70
2022/10/11 06:18:54;;;;;;;4.72;0.90;;;20.50;56.10;;;;;;6244297;28;20083;-70
2022/10/11 06:21:55;;;;;;;5.72;0.98;;;20.40;56.10;;;;;;6243209;28;20082;-70
2022/10/11 06:24:56;;;;;;;5.68;1.30;;;20.50;56.20;;;;;;6252609;28;20244;-70
2022/10/11 06:27:57;;;;;;;1.38;0.77;;;20.50;56.20;;;;;;6252684;28;20029;-71
2022/10/11 06:30:58;;;;;;;3.45;1.13;;;20.50;56.10;;;;;;6262592;28;20048;-70
2022/10/11 06:34:00;;;;;;;3.33;1.10;;;20.50;56.20;;;;;;6269141;28;20059;-70
2022/10/11 06:37:01;;;;;;;3.47;1.00;;;20.50;56.20;;;;;;6262436;28;20037;-69
2022/10/11 06:40:03;;;;;;;2.58;0.80;;;20.50;56.30;;;;;;6263693;28;20048;-70
2022/10/11 06:43:04;;;;;;;2.63;0.80;;;20.50;56.30;;;;;;6253580;28;20025;-70
2022/10/11 06:46:04;;;;;;;6.57;0.93;;;20.50;56.40;;;;;;6242156;28;20033;-70
2022/10/11 06:49:05;;;;;;;3.03;0.75;;;20.50;56.50;;;;;;6265288;28;20340;-70
2022/10/11 06:52:06;;;;;;;4.03;1.00;;;20.50;56.50;;;;;;6243788;28;20104;-71
2022/10/11 06:55:07;;;;;;;1.90;0.90;;;20.50;56.50;;;;;;6243403;28;20552;-70
2022/10/11 06:58:08;;;;;;;3.72;0.90;;;20.50;56.50;;;;;;6240575;28;20033;-70
2022/10/11 07:01:12;;;;;;;2.30;1.15;;;20.40;56.40;;;;;;6264703;28;20032;-70
2022/10/11 07:04:12;;;;;;;4.47;1.15;;;20.50;56.50;;;;;;6265131;28;20517;-69
2022/10/11 07:07:13;;;;;;;3.20;1.00;;;20.50;56.40;;;;;;6268258;28;20111;-70
2022/10/11 07:10:14;;;;;;;2.50;1.00;;;20.50;56.20;;;;;;6255724;28;20018;-70
2022/10/11 07:13:15;;;;;;;2.60;0.93;;;20.50;56.10;;;;;;6244050;28;20497;-70
2022/10/11 07:16:16;;;;;;;1.50;0.75;;;20.50;56.00;;;;;;6266783;28;20041;-70
2022/10/11 07:19:17;;;;;;;1.23;0.65;;;20.60;56.10;;;;;;6259358;28;20145;-70
2022/10/11 07:22:17;;;;;;;2.95;0.90;;;20.60;56.00;;;;;;6256199;28;20025;-70
2022/10/11 07:25:18;;;;;;;1.83;0.90;;;20.60;55.90;;;;;;6268323;28;20256;-70
2022/10/11 07:28:20;;;;;;;24.40;1.52;;;20.60;55.90;;;;;;6261653;28;20028;-70
2022/10/11 07:31:23;;;;;;;13.35;1.08;;;20.60;56.70;;;;;;6243770;28;20041;-69
2022/10/11 07:34:23;;;;;;;4.63;0.90;;;20.60;56.30;;;;;;6258717;28;20025;-70
2022/10/11 07:37:24;;;;;;;12.38;1.30;;;20.60;56.10;;;;;;6267942;28;20055;-70
2022/10/11 07:40:25;;;;;;;9.30;1.23;;;20.60;56.20;;;;;;6268270;28;20402;-70
2022/10/11 07:43:25;;;;;;;4.13;0.85;;;20.60;56.40;;;;;;6266815;28;20083;-72
2022/10/11 07:46:26;;;;;;;4.60;1.23;;;20.60;56.00;;;;;;6250682;28;20021;-71
2022/10/11 07:49:27;;;;;;;6.70;1.10;;;20.60;56.70;;;;;;6256600;28;20552;-71
2022/10/11 07:52:27;;;;;;;11.85;0.93;;;20.70;57.30;;;;;;6268095;28;20386;-70
2022/10/11 07:55:29;;;;;;;11.20;2.10;;;20.70;57.10;;;;;;6267529;28;20390;-70
2022/10/11 07:58:30;;;;;;;9.05;1.30;;;20.70;57.00;;;;;;6267427;28;20051;-70
2022/10/11 08:01:32;;;;;;;6.28;0.90;;;20.70;56.70;;;;;;6249914;28;20033;-70
2022/10/11 08:04:32;;;;;;;5.47;1.00;;;20.70;56.50;;;;;;6255163;28;20358;-70
2022/10/11 08:07:33;;;;;;;5.60;1.05;;;20.70;56.30;;;;;;6267264;28;20021;-70
2022/10/11 08:10:40;;;;;;;5.40;1.02;;;20.70;56.40;;;;;;6267980;28;20420;-69
2022/10/11 08:13:40;;;;;;;4.28;1.00;;;20.60;56.40;;;;;;6272117;28;20032;-70
2022/10/11 08:16:41;;;;;;;2.05;0.70;;;20.60;56.40;;;;;;6271694;28;20029;-70
2022/10/11 08:19:42;;;;;;;4.40;1.20;;;20.60;56.50;;;;;;6272326;28;20485;-70
2022/10/11 08:22:43;;;;;;;6.30;1.10;;;20.60;56.50;;;;;;6272259;28;20685;-71
2022/10/11 08:25:46;;;;;;;2.15;1.00;;;20.60;56.50;;;;;;6271502;28;20500;-70
2022/10/11 08:28:47;;;;;;;3.83;1.23;;;20.60;56.60;;;;;;6271760;28;20556;-70
2022/10/11 08:31:47;;;;;;;4.00;1.00;;;20.60;56.60;;;;;;6271978;28;20033;-70
2022/10/11 08:34:51;;;;;;;3.63;0.98;;;20.50;56.60;;;;;;6262347;28;20419;-70
2022/10/11 08:37:52;;;;;;;2.15;1.02;;;20.50;56.60;;;;;;6257371;28;20104;-70
2022/10/11 08:40:55;;;;;;;5.82;0.82;;;20.50;56.60;;;;;;6254638;28;20593;-71
2022/10/11 08:44:10;;;;;;;2.30;0.80;;;20.50;56.40;;;;;;6246788;28;20105;-70
2022/10/11 08:47:23;;;;;;;1.75;0.77;;;20.50;56.60;;;;;;6248441;28;20101;-73
2022/10/11 08:50:24;;;;;;;2.22;0.63;;;20.50;56.60;;;;;;6247831;28;20048;-70
2022/10/11 08:53:31;;;;;;;2.83;0.95;;;20.50;56.60;;;;;;6246592;28;20522;-70
2022/10/11 08:56:36;;;;;;;2.55;0.80;;;20.50;56.70;;;;;;6266040;28;20028;-70
2022/10/11 08:59:43;;;;;;;3.88;1.00;;;20.50;56.60;;;;;;6271001;28;20021;-70
2022/10/11 09:03:20;;;;;;;1.70;0.68;;;20.50;56.60;;;;;;6271147;28;20013;-70
2022/10/11 09:07:00;;;;;;;2.58;0.90;;;20.50;56.50;;;;;;6252481;28;20026;-70
2022/10/11 09:10:10;;;;;;;1.90;0.68;;;20.50;56.70;;;;;;6247506;28;20867;-71
2022/10/11 09:13:33;;;;;;;1.35;0.65;;;20.50;56.80;;;;;;6271257;28;20029;-71
2022/10/11 09:16:34;;;;;;;23.95;1.90;;;20.60;56.70;;;;;;6263557;28;20543;-70
2022/10/11 09:19:41;;;;;;;3.22;1.00;;;20.60;57.30;;;;;;6270867;28;20043;-70
2022/10/11 09:23:00;;;;;;;3.70;0.90;;;20.60;56.70;;;;;;6284218;28;20024;-71
2022/10/11 09:26:05;;;;;;;2.75;0.70;;;20.60;56.40;;;;;;6272877;28;20069;-70
2022/10/11 09:29:38;;;;;;;6.15;0.90;;;20.70;56.30;;;;;;6246066;28;20101;-70
2022/10/11 09:32:58;;;;;;;2.53;0.80;;;20.70;56.30;;;;;;6238121;28;20038;-70
2022/10/11 09:36:06;;;;;;;2.95;0.70;;;20.70;56.20;;;;;;6254406;28;20040;-70
2022/10/11 09:39:26;;;;;;;2.13;0.73;;;20.70;56.20;;;;;;6269401;28;20153;-71
2022/10/11 09:42:27;;;;;;;5.10;0.95;;;20.70;56.20;;;;;;6270392;28;20116;-70
2022/10/11 09:45:28;;;;;;;4.40;0.82;;;20.70;56.20;;;;;;6259881;28;20033;-70
2022/10/11 09:48:40;;;;;;;1.80;0.77;;;20.70;56.40;;;;;;6265864;28;20049;-74
2022/10/11 09:52:03;;;;;;;4.55;0.90;;;20.70;56.60;;;;;;6250302;28;20082;-70
2022/10/11 09:55:04;;;;;;;2.97;0.80;;;20.70;56.60;;;;;;6270123;28;20124;-70
2022/10/11 09:58:29;;;;;;;2.65;0.73;;;20.70;56.60;;;;;;6255184;28;20075;-71
2022/10/11 10:01:32;;;;;;;8.50;0.70;;;20.70;56.40;;;;;;6260591;28;20056;-70
2022/10/11 10:04:33;;;;;;;4.65;1.00;;;20.70;56.30;;;;;;6269987;28;20017;-70
2022/10/11 10:07:36;;;;;;;6.15;0.90;;;20.80;56.30;;;;;;6274030;28;20028;-70
2022/10/11 10:10:41;;;;;;;4.22;0.60;;;20.80;56.40;;;;;;6290915;28;20020;-70
2022/10/11 10:13:55;;;;;;;5.65;0.80;;;20.80;56.50;;;;;;6271216;28;20120;-71
2022/10/11 10:17:14;;;;;;;2.30;0.70;;;20.80;56.40;;;;;;6262424;28;20032;-70
2022/10/11 10:20:24;;;;;;;2.45;0.85;;;20.80;56.30;;;;;;6269461;28;20083;-70
2022/10/11 10:23:31;;;;;;;7.45;0.70;;;20.80;56.40;;;;;;6279631;28;20035;-70
2022/10/11 10:26:32;;;;;;;3.38;1.02;;;20.80;56.50;;;;;;6265063;28;20029;-70
2022/10/11 10:29:34;;;;;;;2.35;0.50;;;20.70;56.30;;;;;;6250633;28;20066;-70
2022/10/11 10:32:45;;;;;;;2.33;0.63;;;20.70;56.30;;;;;;6271638;28;20025;-71
2022/10/11 10:36:02;;;;;;;1.25;0.50;;;20.70;56.30;;;;;;6267891;28;20082;-70
2022/10/11 10:39:40;;;;;;;2.60;0.80;;;20.70;56.30;;;;;;6252828;28;20445;-70
2022/10/11 10:42:41;;;;;;;3.85;0.70;;;20.70;56.30;;;;;;6267675;28;20524;-70
2022/10/11 10:46:05;;;;;;;2.40;0.50;;;20.70;56.40;;;;;;6259968;28;20025;-70
2022/10/11 10:49:44;;;;;;;1.85;0.73;;;20.70;56.40;;;;;;6254333;28;20041;-70
2022/10/11 10:52:48;;;;;;;1.10;0.50;;;20.70;56.40;;;;;;6257258;28;20107;-70
2022/10/11 10:56:05;;;;;;;1.05;0.63;;;20.70;56.40;;;;;;6268289;28;20540;-71
2022/10/11 10:59:36;;;;;;;0.70;0.50;;;20.70;56.40;;;;;;6266658;28;20031;-73
2022/10/11 11:03:04;;;;;;;2.00;0.90;;;20.70;56.50;;;;;;6254070;28;20032;-70
2022/10/11 11:06:08;;;;;;;2.13;0.75;;;20.70;56.50;;;;;;6282947;28;20036;-70
2022/10/11 11:09:18;;;;;;;1.23;0.50;;;20.70;56.60;;;;;;6268512;28;20017;-70
2022/10/11 11:12:35;;;;;;;1.38;0.55;;;20.70;56.70;;;;;;6260008;28;20268;-70
2022/10/11 11:16:08;;;;;;;1.02;0.60;;;20.70;56.70;;;;;;6283425;28;20039;-70
2022/10/11 11:19:43;;;;;;;1.80;0.60;;;20.70;56.70;;;;;;6279750;28;20025;-70
2022/10/11 11:23:11;;;;;;;2.58;0.80;;;20.70;56.80;;;;;;6281048;28;20024;-70
2022/10/11 11:26:30;;;;;;;1.20;0.60;;;20.70;56.80;;;;;;6258190;28;20083;-72
2022/10/11 11:29:44;;;;;;;1.58;0.73;;;20.70;56.80;;;;;;6265998;28;20025;-70
2022/10/11 11:33:09;;;;;;;4.32;0.70;;;20.70;56.80;;;;;;6277987;28;20026;-70
2022/10/11 11:36:14;;;;;;;10.10;1.23;;;20.70;56.70;;;;;;6263213;28;20406;-70
2022/10/11 11:39:29;;;;;;;9.07;1.10;;;20.70;56.90;;;;;;6267115;28;20056;-71
2022/10/11 11:42:42;;;;;;;5.13;0.73;;;20.80;56.90;;;;;;6264718;28;20064;-71
2022/10/11 11:45:57;;;;;;;30.25;2.17;;;20.80;56.70;;;;;;6249827;28;20021;-71
2022/10/11 11:49:01;;;;;;;13.15;1.30;;;20.80;56.90;;;;;;6264101;28;20045;-70
2022/10/11 11:52:06;;;;;;;3.33;0.70;;;20.80;56.80;;;;;;6265521;28;20032;-72
2022/10/11 11:55:17;;;;;;;5.13;1.25;;;20.80;56.60;;;;;;6273567;28;20017;-72
2022/10/11 11:58:50;;;;;;;9.85;1.70;;;20.80;56.80;;;;;;6252105;28;20129;-70
2022/10/11 12:02:09;;;;;;;4.32;1.10;;;20.80;56.90;;;;;;6266414;28;20033;-70
2022/10/11 12:05:13;;;;;;;4.35;1.00;;;20.80;56.60;;;;;;6273081;28;20028;-70
2022/10/11 12:08:26;;;;;;;2.47;0.70;;;20.80;56.70;;;;;;6272865;28;20049;-70
2022/10/11 12:11:38;;;;;;;7.13;0.90;;;20.80;56.60;;;;;;6271325;28;20025;-70
2022/10/11 12:14:40;;;;;;;3.33;0.93;;;20.80;56.50;;;;;;6272764;28;20048;-70
2022/10/11 12:17:56;;;;;;;2.42;0.82;;;20.90;56.60;;;;;;6273056;28;20526;-71
2022/10/11 12:21:23;;;;;;;3.45;0.90;;;20.90;56.60;;;;;;6248099;28;20657;-70
2022/10/11 12:24:24;;;;;;;3.47;1.00;;;20.80;56.50;;;;;;6248172;28;20061;-70
2022/10/11 12:27:45;;;;;;;3.78;0.80;;;20.90;57.20;;;;;;6248135;28;20550;-71
2022/10/11 12:30:46;;;;;;;3.65;0.73;;;20.90;56.50;;;;;;6271457;28;20092;-70
2022/10/11 12:33:50;;;;;;;2.40;0.60;;;20.90;56.60;;;;;;6273020;28;20035;-71
2022/10/11 12:36:50;;;;;;;1.50;0.88;;;20.90;56.60;;;;;;6272984;28;20413;-71
2022/10/11 12:39:56;;;;;;;5.00;0.95;;;20.90;57.00;;;;;;6272256;28;20125;-70
2022/10/11 12:43:35;;;;;;;1.30;0.60;;;20.90;56.90;;;;;;6270918;28;20049;-70
2022/10/11 12:46:42;;;;;;;3.35;0.82;;;20.90;56.90;;;;;;6240408;28;20033;-71
2022/10/11 12:50:15;;;;;;;1.90;0.70;;;20.80;56.90;;;;;;6261994;28;20052;-70
2022/10/11 12:53:34;;;;;;;1.92;0.65;;;20.80;56.90;;;;;;6246580;28;20033;-70
2022/10/11 12:56:44;;;;;;;8.15;0.80;;;20.80;56.80;;;;;;6267483;28;20060;-70
2022/10/11 12:59:45;;;;;;;2.63;0.85;;;20.80;57.00;;;;;;6259657;28;20646;-71
2022/10/11 13:02:48;;;;;;;2.85;0.70;;;20.80;56.90;;;;;;6245664;28;20655;-70
2022/10/11 13:05:49;;;;;;;6.18;0.80;;;20.80;56.90;;;;;;6264682;28;20017;-70
2022/10/11 13:09:02;;;;;;;2.53;0.60;;;20.80;57.00;;;;;;6268863;28;20025;-71
2022/10/11 13:12:13;;;;;;;4.18;0.70;;;20.80;57.00;;;;;;6245971;28;20024;-70
2022/10/11 13:15:17;;;;;;;2.75;0.80;;;20.70;57.00;;;;;;6258230;28;20074;-70
2022/10/11 13:18:22;;;;;;;1.58;0.70;;;20.70;57.00;;;;;;6270602;28;20025;-70
2022/10/11 13:21:35;;;;;;;3.10;0.85;;;20.70;57.00;;;;;;6248667;28;20034;-70
2022/10/11 13:24:38;;;;;;;2.22;0.90;;;20.70;57.10;;;;;;6250549;28;20070;-70
2022/10/11 13:27:38;;;;;;;1.45;0.60;;;20.70;57.20;;;;;;6269482;28;20048;-70
2022/10/11 13:30:45;;;;;;;4.20;1.17;;;20.70;57.20;;;;;;6269811;28;20063;-70
2022/10/11 13:33:46;;;;;;;2.15;0.75;;;20.70;57.20;;;;;;6269403;28;20027;-70
2022/10/11 13:36:46;;;;;;;2.50;0.80;;;20.70;57.20;;;;;;6251166;28;20021;-70
2022/10/11 13:39:50;;;;;;;1.25;0.40;;;20.70;57.20;;;;;;6263611;28;20033;-72
2022/10/11 13:42:52;;;;;;;7.68;0.60;;;20.70;57.20;;;;;;6258735;28;20697;-70
2022/10/11 13:45:55;;;;;;;2.15;0.60;;;20.70;57.20;;;;;;6267942;28;20076;-70
2022/10/11 13:49:01;;;;;;;2.35;0.73;;;20.70;57.20;;;;;;6268283;28;20052;-71
2022/10/11 13:52:06;;;;;;;4.03;1.00;;;20.70;57.20;;;;;;6260308;28;20045;-71
2022/10/11 13:55:17;;;;;;;1.45;0.70;;;20.70;57.20;;;;;;6246299;28;20028;-70
2022/10/11 13:58:26;;;;;;;1.83;0.70;;;20.70;57.30;;;;;;6268165;28;20029;-70
2022/10/11 14:01:43;;;;;;;1.40;0.70;;;20.70;57.30;;;;;;6264057;28;20033;-70
2022/10/11 14:04:43;;;;;;;1.85;0.70;;;20.70;57.90;;;;;;6268707;28;20028;-70
2022/10/11 14:07:46;;;;;;;5.15;1.02;;;20.70;57.30;;;;;;6268444;28;20074;-70
2022/10/11 14:10:48;;;;;;;5.00;1.40;;;20.70;57.30;;;;;;6261766;28;20470;-70
2022/10/11 14:13:49;;;;;;;4.85;1.58;;;20.70;57.40;;;;;;6268540;28;20028;-70
2022/10/11 14:16:57;;;;;;;7.10;1.88;;;20.60;57.30;;;;;;6268191;28;20025;-70
2022/10/11 14:20:25;;;;;;;3.70;1.40;;;20.60;57.30;;;;;;6268508;28;20029;-70
2022/10/11 14:23:25;;;;;;;4.88;1.80;;;20.60;57.30;;;;;;6249191;28;20037;-70
2022/10/11 14:26:31;;;;;;;4.22;1.63;;;20.60;57.30;;;;;;6268881;28;20024;-70
2022/10/11 14:29:37;;;;;;;3.08;1.52;;;20.60;57.30;;;;;;6241684;28;20025;-70
2022/10/11 14:32:41;;;;;;;8.57;1.77;;;20.60;57.30;;;;;;6261347;28;20103;-70
2022/10/11 14:35:42;;;;;;;4.60;1.90;;;20.60;57.30;;;;;;6262858;28;20074;-70
2022/10/11 14:38:42;;;;;;;6.25;2.20;;;20.60;57.30;;;;;;6276794;28;20508;-70
2022/10/11 14:41:43;;;;;;;8.38;2.00;;;20.60;57.30;;;;;;6267943;28;20031;-70
2022/10/11 14:44:44;;;;;;;6.15;2.03;;;20.60;57.30;;;;;;6260348;28;20036;-70
2022/10/11 14:47:45;;;;;;;6.72;2.22;;;20.60;57.30;;;;;;6266762;28;20041;-70
2022/10/11 14:51:04;;;;;;;4.40;2.03;;;20.60;57.30;;;;;;6267742;28;20061;-70
2022/10/11 14:54:06;;;;;;;5.05;1.77;;;20.60;57.30;;;;;;6267086;28;20052;-70
2022/10/11 14:57:07;;;;;;;6.45;2.17;;;20.60;57.30;;;;;;6267615;28;20036;-70
2022/10/11 15:00:37;;;;;;;3.85;1.80;;;20.60;57.30;;;;;;6261720;28;20022;-70
2022/10/11 15:03:37;;;;;;;5.88;2.17;;;20.60;57.40;;;;;;6251419;28;20037;-71
2022/10/11 15:06:40;;;;;;;4.78;2.10;;;20.60;57.30;;;;;;6267321;28;20025;-70
2022/10/11 15:09:41;;;;;;;4.63;1.85;;;20.60;57.30;;;;;;6263588;28;20402;-70
2022/10/11 15:12:42;;;;;;;5.32;1.63;;;20.60;57.40;;;;;;6253614;28;20025;-70
2022/10/11 15:15:44;;;;;;;3.83;1.60;;;20.60;57.40;;;;;;6242698;28;20029;-70
2022/10/11 15:18:49;;;;;;;4.35;1.77;;;20.60;57.40;;;;;;6263197;28;20029;-70
2022/10/11 15:21:51;;;;;;;4.13;2.00;;;20.60;57.40;;;;;;6263073;28;20027;-70
2022/10/11 15:24:52;;;;;;;3.70;2.05;;;20.60;57.40;;;;;;6266639;28;20067;-70
2022/10/11 15:27:52;;;;;;;6.32;2.00;;;20.60;57.40;;;;;;6273667;28;20100;-69
2022/10/11 15:30:54;;;;;;;3.97;1.67;;;20.60;57.40;;;;;;6264132;28;20017;-70
2022/10/11 15:33:58;;;;;;;6.95;2.30;;;20.60;57.40;;;;;;6266505;28;20099;-70
2022/10/11 15:36:59;;;;;;;4.88;1.90;;;20.60;57.30;;;;;;6267716;28;20381;-70
2022/10/11 15:39:59;;;;;;;5.05;1.70;;;20.60;57.30;;;;;;6266414;28;20059;-69
2022/10/11 15:43:02;;;;;;;3.05;1.42;;;20.60;57.30;;;;;;6257315;28;20033;-71
2022/10/11 15:46:03;;;;;;;3.42;1.60;;;20.60;57.30;;;;;;6242212;28;20029;-70
2022/10/11 15:49:11;;;;;;;8.25;2.20;;;20.60;57.30;;;;;;6244576;28;20083;-69
2022/10/11 15:52:11;;;;;;;6.50;1.77;;;20.60;57.30;;;;;;6242222;28;20033;-69
2022/10/11 15:55:12;;;;;;;7.57;1.88;;;20.60;57.30;;;;;;6242256;28;20505;-70
2022/10/11 15:58:16;;;;;;;5.63;1.30;;;20.60;57.30;;;;;;6252454;28;20520;-70
2022/10/11 16:01:20;;;;;;;7.07;1.92;;;20.60;57.30;;;;;;6266345;28;20029;-69
2022/10/11 16:04:21;;;;;;;4.38;1.73;;;20.60;57.30;;;;;;6266358;28;20032;-72
2022/10/11 16:07:22;;;;;;;5.72;1.92;;;20.60;57.30;;;;;;6266422;28;20447;-73
2022/10/11 16:10:22;;;;;;;4.35;1.50;;;20.60;57.30;;;;;;6257377;28;20672;-70